createdAt,value
2023-05-17T00:00:57.000Z,63.03
2023-05-17T00:01:56.000Z,62.80
2023-05-17T00:02:56.000Z,62.58
2023-05-17T00:03:56.000Z,62.75
2023-05-17T00:04:57.000Z,62.73
2023-05-17T00:05:56.000Z,62.36
2023-05-17T00:06:56.000Z,62.25
2023-05-17T00:07:57.000Z,62.22
2023-05-17T00:08:56.000Z,62.12
2023-05-17T00:09:56.000Z,61.90
2023-05-17T00:10:57.000Z,62.18
2023-05-17T00:11:57.000Z,61.98
2023-05-17T00:12:56.000Z,62.18
2023-05-17T00:13:56.000Z,62.16
2023-05-17T00:14:56.000Z,62.53
2023-05-17T00:15:56.000Z,62.51
2023-05-17T00:16:56.000Z,62.56
2023-05-17T00:17:56.000Z,62.41
2023-05-17T00:18:56.000Z,62.56
2023-05-17T00:19:56.000Z,62.30
2023-05-17T00:20:56.000Z,62.55
2023-05-17T00:21:56.000Z,62.24
2023-05-17T00:22:56.000Z,62.01
2023-05-17T00:23:56.000Z,61.84
2023-05-17T00:24:56.000Z,62.06
2023-05-17T00:25:56.000Z,61.77
2023-05-17T00:26:56.000Z,61.75
2023-05-17T00:27:56.000Z,61.88
2023-05-17T00:28:56.000Z,61.58
2023-05-17T00:29:57.000Z,61.54
2023-05-17T00:30:56.000Z,61.50
2023-05-17T00:31:56.000Z,61.97
2023-05-17T00:32:56.000Z,61.83
2023-05-17T00:33:56.000Z,61.99
2023-05-17T00:34:56.000Z,62.04
2023-05-17T00:35:57.000Z,62.15
2023-05-17T00:36:56.000Z,62.13
2023-05-17T00:37:57.000Z,62.41
2023-05-17T00:38:56.000Z,62.17
2023-05-17T00:39:56.000Z,62.02
2023-05-17T00:40:56.000Z,62.19
2023-05-17T00:41:57.000Z,62.67
2023-05-17T00:42:56.000Z,62.30
2023-05-17T00:43:56.000Z,62.61
2023-05-17T00:44:56.000Z,62.77
2023-05-17T00:45:56.000Z,62.53
2023-05-17T00:46:58.000Z,62.87
2023-05-17T00:47:56.000Z,62.68
2023-05-17T00:48:56.000Z,63.05
2023-05-17T00:49:56.000Z,63.28
2023-05-17T00:50:57.000Z,63.57
2023-05-17T00:51:58.000Z,63.57
2023-05-17T00:52:57.000Z,63.59
2023-05-17T00:53:56.000Z,63.71
2023-05-17T00:54:57.000Z,63.55
2023-05-17T00:55:56.000Z,63.48
2023-05-17T00:56:58.000Z,63.43
2023-05-17T00:57:56.000Z,63.59
2023-05-17T00:58:57.000Z,64.09
2023-05-17T00:59:57.000Z,64.04
2023-05-17T01:00:58.000Z,63.69
2023-05-17T01:01:57.000Z,63.69
2023-05-17T01:02:56.000Z,63.60
2023-05-17T01:03:56.000Z,63.64
2023-05-17T01:04:56.000Z,63.70
2023-05-17T01:05:56.000Z,63.46
2023-05-17T01:06:57.000Z,63.52
2023-05-17T01:07:56.000Z,63.66
2023-05-17T01:08:56.000Z,63.46
2023-05-17T01:09:57.000Z,63.33
2023-05-17T01:11:07.000Z,63.56
2023-05-17T01:12:06.000Z,63.78
2023-05-17T01:13:06.000Z,63.60
2023-05-17T01:14:06.000Z,63.77
2023-05-17T01:15:06.000Z,63.95
2023-05-17T01:16:06.000Z,63.82
2023-05-17T01:17:03.000Z,63.63
2023-05-17T01:18:11.000Z,63.68
2023-05-17T01:19:16.000Z,64.00
2023-05-17T01:20:05.000Z,63.99
2023-05-17T01:20:58.000Z,64.11
2023-05-17T01:22:06.000Z,64.38
2023-05-17T01:23:17.000Z,64.65
2023-05-17T01:24:25.000Z,64.75
2023-05-17T01:25:06.000Z,64.58
2023-05-17T01:26:07.000Z,65.32
2023-05-17T01:26:59.000Z,65.60
2023-05-17T01:27:58.000Z,65.53
2023-05-17T01:28:59.000Z,66.11
2023-05-17T01:29:58.000Z,66.12
2023-05-17T01:30:57.000Z,65.76
2023-05-17T01:31:58.000Z,66.17
2023-05-17T01:32:59.000Z,66.14
2023-05-17T01:33:57.000Z,65.48
2023-05-17T01:34:56.000Z,65.85
2023-05-17T01:35:56.000Z,65.22
2023-05-17T01:36:57.000Z,65.55
2023-05-17T01:37:56.000Z,65.30
2023-05-17T01:38:59.000Z,65.08
2023-05-17T01:39:57.000Z,65.44
2023-05-17T01:41:06.000Z,65.49
2023-05-17T01:42:07.000Z,65.95
2023-05-17T01:43:08.000Z,65.87
2023-05-17T01:44:16.000Z,65.90
2023-05-17T01:45:06.000Z,65.88
2023-05-17T01:46:10.000Z,65.75
2023-05-17T01:47:10.000Z,65.97
2023-05-17T01:48:06.000Z,66.18
2023-05-17T01:49:16.000Z,65.74
2023-05-17T01:49:58.000Z,65.33
2023-05-17T01:50:57.000Z,65.63
2023-05-17T01:52:07.000Z,66.08
2023-05-17T01:53:16.000Z,65.71
2023-05-17T01:54:01.000Z,65.47
2023-05-17T01:55:16.000Z,65.61
2023-05-17T01:56:01.000Z,65.92
2023-05-17T01:56:57.000Z,65.47
2023-05-17T01:57:58.000Z,65.92
2023-05-17T01:59:01.000Z,65.78
2023-05-17T02:00:00.000Z,65.41
2023-05-17T02:00:59.000Z,65.12
2023-05-17T02:01:58.000Z,65.89
2023-05-17T02:02:56.000Z,65.34
2023-05-17T02:03:56.000Z,65.82
2023-05-17T02:04:57.000Z,65.79
2023-05-17T02:05:56.000Z,65.58
2023-05-17T02:06:56.000Z,65.82
2023-05-17T02:07:56.000Z,65.44
2023-05-17T02:08:57.000Z,65.41
2023-05-17T02:09:56.000Z,66.06
2023-05-17T02:10:56.000Z,65.73
2023-05-17T02:11:56.000Z,66.14
2023-05-17T02:12:56.000Z,66.80
2023-05-17T02:13:57.000Z,65.95
2023-05-17T02:14:56.000Z,65.98
2023-05-17T02:15:59.000Z,66.26
2023-05-17T02:16:56.000Z,66.59
2023-05-17T02:17:56.000Z,66.60
2023-05-17T02:18:56.000Z,65.88
2023-05-17T02:19:56.000Z,66.09
2023-05-17T02:20:56.000Z,66.70
2023-05-17T02:21:56.000Z,66.26
2023-05-17T02:22:56.000Z,66.68
2023-05-17T02:23:56.000Z,66.60
2023-05-17T02:24:56.000Z,66.59
2023-05-17T02:25:56.000Z,66.33
2023-05-17T02:26:56.000Z,66.29
2023-05-17T02:27:56.000Z,66.80
2023-05-17T02:28:56.000Z,67.05
2023-05-17T02:29:56.000Z,67.62
2023-05-17T02:30:55.000Z,67.34
2023-05-17T02:31:56.000Z,67.34
2023-05-17T02:32:56.000Z,66.88
2023-05-17T02:33:56.000Z,67.30
2023-05-17T02:34:56.000Z,66.99
2023-05-17T02:35:56.000Z,67.17
2023-05-17T02:36:56.000Z,67.11
2023-05-17T02:37:56.000Z,67.21
2023-05-17T02:38:56.000Z,67.77
2023-05-17T02:39:56.000Z,68.14
2023-05-17T02:40:56.000Z,68.00
2023-05-17T02:41:56.000Z,68.28
2023-05-17T02:42:56.000Z,68.24
2023-05-17T02:43:55.000Z,67.54
2023-05-17T02:44:56.000Z,67.99
2023-05-17T02:45:55.000Z,67.69
2023-05-17T02:46:55.000Z,67.70
2023-05-17T02:47:55.000Z,67.70
2023-05-17T02:48:55.000Z,67.32
2023-05-17T02:49:55.000Z,67.44
2023-05-17T02:50:55.000Z,67.53
2023-05-17T02:51:55.000Z,67.50
2023-05-17T02:52:55.000Z,67.46
2023-05-17T02:53:55.000Z,67.39
2023-05-17T02:54:55.000Z,67.02
2023-05-17T02:55:56.000Z,67.10
2023-05-17T02:56:55.000Z,67.21
2023-05-17T02:57:55.000Z,66.89
2023-05-17T02:58:55.000Z,67.62
2023-05-17T02:59:56.000Z,68.31
2023-05-17T03:00:55.000Z,68.38
2023-05-17T03:01:55.000Z,68.95
2023-05-17T03:02:55.000Z,68.51
2023-05-17T03:03:55.000Z,68.29
2023-05-17T03:04:55.000Z,68.41
2023-05-17T03:05:59.000Z,68.07
2023-05-17T03:06:55.000Z,68.38
2023-05-17T03:07:55.000Z,68.52
2023-05-17T03:08:55.000Z,68.63
2023-05-17T03:09:55.000Z,67.93
2023-05-17T03:10:55.000Z,68.14
2023-05-17T03:11:56.000Z,67.69
2023-05-17T03:12:55.000Z,67.69
2023-05-17T03:13:55.000Z,67.71
2023-05-17T03:14:56.000Z,67.47
2023-05-17T03:15:56.000Z,67.74
2023-05-17T03:16:56.000Z,67.66
2023-05-17T03:17:56.000Z,68.29
2023-05-17T03:18:56.000Z,68.33
2023-05-17T03:19:56.000Z,67.66
2023-05-17T03:20:56.000Z,68.63
2023-05-17T03:21:56.000Z,67.97
2023-05-17T03:22:56.000Z,67.92
2023-05-17T03:23:56.000Z,67.66
2023-05-17T03:24:56.000Z,67.93
2023-05-17T03:25:56.000Z,68.49
2023-05-17T03:26:56.000Z,68.63
2023-05-17T03:27:56.000Z,68.74
2023-05-17T03:28:56.000Z,68.79
2023-05-17T03:29:56.000Z,67.98
2023-05-17T03:30:56.000Z,68.61
2023-05-17T03:31:56.000Z,68.37
2023-05-17T03:32:56.000Z,68.39
2023-05-17T03:33:56.000Z,67.94
2023-05-17T03:34:56.000Z,67.96
2023-05-17T03:35:56.000Z,68.12
2023-05-17T03:36:56.000Z,67.86
2023-05-17T03:37:56.000Z,68.45
2023-05-17T03:38:56.000Z,68.23
2023-05-17T03:39:56.000Z,68.51
2023-05-17T03:40:56.000Z,68.01
2023-05-17T03:41:56.000Z,68.03
2023-05-17T03:42:56.000Z,67.74
2023-05-17T03:43:56.000Z,68.32
2023-05-17T03:44:56.000Z,68.63
2023-05-17T03:45:55.000Z,68.20
2023-05-17T03:46:55.000Z,67.86
2023-05-17T03:47:56.000Z,68.77
2023-05-17T03:48:55.000Z,68.57
2023-05-17T03:49:55.000Z,68.65
2023-05-17T03:50:56.000Z,68.96
2023-05-17T03:51:56.000Z,68.53
2023-05-17T03:52:56.000Z,68.44
2023-05-17T03:53:57.000Z,68.79
2023-05-17T03:54:55.000Z,69.33
2023-05-17T03:55:55.000Z,68.84
2023-05-17T03:56:56.000Z,68.92
2023-05-17T03:57:55.000Z,69.30
2023-05-17T03:58:55.000Z,68.56
2023-05-17T03:59:56.000Z,68.79
2023-05-17T04:00:55.000Z,68.43
2023-05-17T04:01:56.000Z,68.99
2023-05-17T04:02:55.000Z,69.06
2023-05-17T04:03:55.000Z,68.48
2023-05-17T04:04:56.000Z,68.69
2023-05-17T04:06:03.000Z,68.94
2023-05-17T04:06:56.000Z,69.73
2023-05-17T04:07:56.000Z,69.83
2023-05-17T04:08:57.000Z,69.67
2023-05-17T04:10:01.000Z,69.92
2023-05-17T04:10:56.000Z,69.34
2023-05-17T04:11:55.000Z,69.53
2023-05-17T04:12:56.000Z,69.74
2023-05-17T04:13:55.000Z,69.44
2023-05-17T04:14:56.000Z,69.98
2023-05-17T04:15:56.000Z,69.90
2023-05-17T04:16:55.000Z,69.26
2023-05-17T04:17:55.000Z,69.61
2023-05-17T04:18:58.000Z,69.44
2023-05-17T04:19:56.000Z,69.91
2023-05-17T04:20:56.000Z,70.04
2023-05-17T04:21:56.000Z,69.70
2023-05-17T04:22:56.000Z,70.10
2023-05-17T04:23:56.000Z,69.67
2023-05-17T04:24:56.000Z,69.84
2023-05-17T04:25:56.000Z,69.76
2023-05-17T04:26:55.000Z,69.78
2023-05-17T04:27:56.000Z,69.69
2023-05-17T04:28:55.000Z,69.19
2023-05-17T04:29:56.000Z,69.76
2023-05-17T04:30:56.000Z,69.75
2023-05-17T04:31:56.000Z,69.79
2023-05-17T04:32:57.000Z,69.54
2023-05-17T04:33:55.000Z,69.58
2023-05-17T04:34:55.000Z,69.41
2023-05-17T04:35:56.000Z,69.37
2023-05-17T04:36:56.000Z,70.16
2023-05-17T04:37:56.000Z,70.47
2023-05-17T04:38:56.000Z,70.28
2023-05-17T04:39:57.000Z,70.30
2023-05-17T04:41:03.000Z,70.28
2023-05-17T04:41:55.000Z,70.39
2023-05-17T04:42:55.000Z,70.92
2023-05-17T04:43:56.000Z,71.00
2023-05-17T04:44:56.000Z,70.75
2023-05-17T04:45:56.000Z,71.58
2023-05-17T04:46:56.000Z,71.14
2023-05-17T04:47:55.000Z,72.04
2023-05-17T04:48:56.000Z,71.60
2023-05-17T04:49:56.000Z,71.95
2023-05-17T04:50:58.000Z,71.85
2023-05-17T04:51:55.000Z,71.67
2023-05-17T04:52:55.000Z,71.57
2023-05-17T04:53:59.000Z,72.15
2023-05-17T04:54:56.000Z,71.50
2023-05-17T04:55:57.000Z,71.95
2023-05-17T04:56:55.000Z,71.81
2023-05-17T04:57:55.000Z,72.02
2023-05-17T04:58:55.000Z,71.70
2023-05-17T04:59:55.000Z,72.46
2023-05-17T05:00:56.000Z,72.13
2023-05-17T05:01:55.000Z,71.76
2023-05-17T05:02:55.000Z,71.90
2023-05-17T05:03:56.000Z,72.04
2023-05-17T05:04:55.000Z,72.40
2023-05-17T05:05:55.000Z,72.09
2023-05-17T05:06:55.000Z,71.95
2023-05-17T05:07:56.000Z,71.75
2023-05-17T05:08:55.000Z,71.34
2023-05-17T05:09:55.000Z,71.80
2023-05-17T05:10:55.000Z,71.91
2023-05-17T05:11:55.000Z,71.52
2023-05-17T05:12:56.000Z,72.60
2023-05-17T05:13:56.000Z,72.70
2023-05-17T05:14:55.000Z,72.76
2023-05-17T05:15:55.000Z,72.78
2023-05-17T05:16:55.000Z,72.92
2023-05-17T05:17:55.000Z,72.93
2023-05-17T05:18:55.000Z,73.44
2023-05-17T05:19:55.000Z,73.27
2023-05-17T05:20:55.000Z,73.00
2023-05-17T05:21:55.000Z,73.52
2023-05-17T05:22:56.000Z,73.61
2023-05-17T05:23:55.000Z,73.94
2023-05-17T05:24:55.000Z,74.50
2023-05-17T05:25:55.000Z,74.36
2023-05-17T05:26:55.000Z,74.76
2023-05-17T05:27:55.000Z,74.46
2023-05-17T05:28:56.000Z,74.53
2023-05-17T05:29:55.000Z,74.22
2023-05-17T05:30:57.000Z,74.27
2023-05-17T05:31:55.000Z,74.10
2023-05-17T05:32:55.000Z,74.25
2023-05-17T05:33:55.000Z,74.56
2023-05-17T05:34:55.000Z,74.25
2023-05-17T05:35:55.000Z,74.88
2023-05-17T05:36:55.000Z,74.59
2023-05-17T05:37:56.000Z,74.39
2023-05-17T05:38:55.000Z,74.23
2023-05-17T05:39:55.000Z,74.28
2023-05-17T05:40:55.000Z,74.47
2023-05-17T05:41:55.000Z,74.45
2023-05-17T05:42:55.000Z,74.85
2023-05-17T05:43:55.000Z,74.96
2023-05-17T05:44:55.000Z,74.47
2023-05-17T05:45:56.000Z,73.87
2023-05-17T05:46:55.000Z,74.42
2023-05-17T05:47:56.000Z,74.45
2023-05-17T05:48:56.000Z,73.58
2023-05-17T05:49:56.000Z,73.78
2023-05-17T05:50:55.000Z,73.30
2023-05-17T05:51:56.000Z,73.71
2023-05-17T05:52:59.000Z,73.87
2023-05-17T05:53:56.000Z,73.58
2023-05-17T05:54:56.000Z,73.71
2023-05-17T05:55:56.000Z,73.96
2023-05-17T05:56:55.000Z,74.07
2023-05-17T05:57:56.000Z,73.85
2023-05-17T05:58:56.000Z,73.63
2023-05-17T05:59:56.000Z,73.87
2023-05-17T06:00:55.000Z,73.77
2023-05-17T06:01:56.000Z,73.56
2023-05-17T06:02:56.000Z,73.22
2023-05-17T06:03:56.000Z,73.40
2023-05-17T06:04:55.000Z,73.75
2023-05-17T06:05:55.000Z,73.34
2023-05-17T06:06:55.000Z,73.24
2023-05-17T06:07:56.000Z,73.22
2023-05-17T06:08:55.000Z,73.35
2023-05-17T06:09:55.000Z,73.72
2023-05-17T06:10:55.000Z,73.67
2023-05-17T06:11:56.000Z,73.62
2023-05-17T06:12:56.000Z,73.45
2023-05-17T06:13:56.000Z,73.29
2023-05-17T06:14:56.000Z,73.49
2023-05-17T06:15:57.000Z,73.54
2023-05-17T06:16:55.000Z,73.24
2023-05-17T06:17:56.000Z,73.21
2023-05-17T06:18:55.000Z,72.83
2023-05-17T06:19:58.000Z,72.51
2023-05-17T06:20:56.000Z,72.11
2023-05-17T06:21:55.000Z,72.65
2023-05-17T06:22:55.000Z,72.21
2023-05-17T06:23:56.000Z,72.08
2023-05-17T06:24:56.000Z,71.86
2023-05-17T06:25:56.000Z,71.77
2023-05-17T06:26:55.000Z,71.53
2023-05-17T06:27:56.000Z,71.38
2023-05-17T06:28:56.000Z,71.00
2023-05-17T06:29:55.000Z,70.98
2023-05-17T06:30:56.000Z,70.21
2023-05-17T06:31:56.000Z,69.94
2023-05-17T06:32:56.000Z,69.33
2023-05-17T06:33:56.000Z,70.07
2023-05-17T06:34:56.000Z,69.87
2023-05-17T06:35:56.000Z,68.79
2023-05-17T06:36:56.000Z,69.13
2023-05-17T06:37:55.000Z,68.59
2023-05-17T06:38:55.000Z,68.24
2023-05-17T06:40:01.000Z,68.42
2023-05-17T06:40:56.000Z,68.60
2023-05-17T06:41:55.000Z,67.99
2023-05-17T06:42:55.000Z,67.47
2023-05-17T06:43:56.000Z,68.18
2023-05-17T06:44:56.000Z,68.24
2023-05-17T06:45:55.000Z,68.11
2023-05-17T06:46:55.000Z,68.29
2023-05-17T06:47:55.000Z,68.27
2023-05-17T06:48:56.000Z,68.04
2023-05-17T06:49:55.000Z,68.27
2023-05-17T06:50:55.000Z,68.53
2023-05-17T06:52:02.000Z,68.71
2023-05-17T06:52:55.000Z,68.21
2023-05-17T06:53:56.000Z,68.28
2023-05-17T06:54:56.000Z,68.76
2023-05-17T06:55:55.000Z,69.40
2023-05-17T06:57:01.000Z,68.70
2023-05-17T06:57:55.000Z,68.61
2023-05-17T06:58:55.000Z,68.59
2023-05-17T06:59:56.000Z,68.57
2023-05-17T07:00:55.000Z,67.70
2023-05-17T07:01:56.000Z,66.35
2023-05-17T07:02:55.000Z,66.34
2023-05-17T07:03:55.000Z,67.18
2023-05-17T07:04:55.000Z,67.17
2023-05-17T07:05:55.000Z,67.19
2023-05-17T07:06:55.000Z,65.50
2023-05-17T07:07:57.000Z,64.79
2023-05-17T07:08:55.000Z,64.52
2023-05-17T07:09:56.000Z,65.05
2023-05-17T07:10:55.000Z,65.00
2023-05-17T07:11:55.000Z,64.97
2023-05-17T07:12:56.000Z,64.89
2023-05-17T07:13:55.000Z,64.44
2023-05-17T07:14:55.000Z,64.63
2023-05-17T07:15:56.000Z,64.43
2023-05-17T07:16:56.000Z,64.88
2023-05-17T07:17:56.000Z,64.71
2023-05-17T07:18:56.000Z,64.92
2023-05-17T07:19:56.000Z,64.43
2023-05-17T07:20:56.000Z,64.56
2023-05-17T07:21:56.000Z,64.35
2023-05-17T07:22:56.000Z,64.33
2023-05-17T07:23:56.000Z,63.96
2023-05-17T07:24:56.000Z,64.07
2023-05-17T07:25:56.000Z,65.21
2023-05-17T07:26:56.000Z,66.03
2023-05-17T07:27:56.000Z,66.30
2023-05-17T07:28:56.000Z,66.36
2023-05-17T07:29:56.000Z,66.31
2023-05-17T07:30:56.000Z,66.81
2023-05-17T07:31:56.000Z,67.38
2023-05-17T07:32:56.000Z,66.36
2023-05-17T07:33:56.000Z,65.45
2023-05-17T07:34:56.000Z,65.65
2023-05-17T07:35:56.000Z,65.63
2023-05-17T07:36:56.000Z,65.44
2023-05-17T07:37:56.000Z,65.95
2023-05-17T07:38:57.000Z,66.24
2023-05-17T07:39:56.000Z,66.43
2023-05-17T07:40:56.000Z,66.75
2023-05-17T07:41:56.000Z,65.99
2023-05-17T07:42:56.000Z,65.94
2023-05-17T07:43:56.000Z,64.45
2023-05-17T07:44:56.000Z,65.52
2023-05-17T07:45:56.000Z,64.95
2023-05-17T07:46:56.000Z,64.46
2023-05-17T07:47:55.000Z,63.96
2023-05-17T07:48:56.000Z,64.12
2023-05-17T07:49:55.000Z,64.02
2023-05-17T07:50:55.000Z,63.95
2023-05-17T07:51:55.000Z,63.57
2023-05-17T07:52:56.000Z,64.51
2023-05-17T07:53:55.000Z,64.38
2023-05-17T07:54:55.000Z,62.66
2023-05-17T07:55:55.000Z,63.47
2023-05-17T07:56:56.000Z,62.96
2023-05-17T07:57:55.000Z,62.95
2023-05-17T07:58:56.000Z,62.56
2023-05-17T07:59:55.000Z,63.06
2023-05-17T08:00:55.000Z,62.72
2023-05-17T08:01:55.000Z,61.93
2023-05-17T08:02:55.000Z,61.49
2023-05-17T08:03:55.000Z,60.86
2023-05-17T08:04:55.000Z,60.94
2023-05-17T08:05:55.000Z,60.62
2023-05-17T08:06:56.000Z,61.08
2023-05-17T08:07:58.000Z,61.18
2023-05-17T08:08:55.000Z,60.56
2023-05-17T08:09:55.000Z,60.95
2023-05-17T08:10:55.000Z,60.91
2023-05-17T08:11:55.000Z,60.67
2023-05-17T08:12:55.000Z,60.70
2023-05-17T08:13:55.000Z,60.62
2023-05-17T08:14:55.000Z,60.44
2023-05-17T08:16:00.000Z,61.04
2023-05-17T08:16:55.000Z,61.03
2023-05-17T08:17:55.000Z,61.37
2023-05-17T08:18:56.000Z,61.34
2023-05-17T08:19:55.000Z,61.50
2023-05-17T08:20:56.000Z,61.44
2023-05-17T08:21:55.000Z,61.94
2023-05-17T08:22:56.000Z,61.96
2023-05-17T08:23:56.000Z,60.98
2023-05-17T08:24:55.000Z,61.49
2023-05-17T08:25:55.000Z,60.68
2023-05-17T08:26:55.000Z,61.27
2023-05-17T08:27:55.000Z,61.41
2023-05-17T08:28:55.000Z,61.67
2023-05-17T08:29:56.000Z,60.87
2023-05-17T08:30:56.000Z,61.57
2023-05-17T08:31:56.000Z,61.26
2023-05-17T08:32:56.000Z,60.78
2023-05-17T08:33:56.000Z,60.98
2023-05-17T08:34:56.000Z,61.26
2023-05-17T08:35:57.000Z,61.40
2023-05-17T08:36:56.000Z,61.17
2023-05-17T08:37:56.000Z,61.70
2023-05-17T08:38:56.000Z,61.48
2023-05-17T08:39:55.000Z,61.30
2023-05-17T08:40:58.000Z,62.11
2023-05-17T08:41:58.000Z,60.66
2023-05-17T08:42:56.000Z,60.63
2023-05-17T08:43:58.000Z,60.29
2023-05-17T08:44:56.000Z,59.96
2023-05-17T08:45:57.000Z,60.20
2023-05-17T08:46:58.000Z,59.81
2023-05-17T08:47:56.000Z,59.85
2023-05-17T08:48:58.000Z,60.51
2023-05-17T08:49:58.000Z,60.68
2023-05-17T08:50:59.000Z,61.19
2023-05-17T08:51:58.000Z,61.17
2023-05-17T08:52:56.000Z,61.16
2023-05-17T08:53:56.000Z,61.28
2023-05-17T08:54:56.000Z,61.57
2023-05-17T08:55:57.000Z,61.43
2023-05-17T08:56:58.000Z,61.21
2023-05-17T08:57:55.000Z,61.01
2023-05-17T08:58:56.000Z,60.34
2023-05-17T08:59:58.000Z,60.19
2023-05-17T09:00:57.000Z,60.16
2023-05-17T09:01:55.000Z,60.10
2023-05-17T09:02:56.000Z,59.85
2023-05-17T09:03:58.000Z,60.24
2023-05-17T09:04:56.000Z,60.41
2023-05-17T09:05:56.000Z,60.12
2023-05-17T09:06:55.000Z,60.68
2023-05-17T09:07:57.000Z,60.64
2023-05-17T09:08:56.000Z,59.50
2023-05-17T09:09:56.000Z,60.08
2023-05-17T09:10:57.000Z,60.16
2023-05-17T09:11:55.000Z,59.65
2023-05-17T09:12:55.000Z,60.44
2023-05-17T09:13:59.000Z,60.26
2023-05-17T09:15:10.000Z,60.79
2023-05-17T09:15:55.000Z,60.15
2023-05-17T09:16:56.000Z,60.33
2023-05-17T09:17:55.000Z,60.47
2023-05-17T09:18:56.000Z,60.84
2023-05-17T09:19:56.000Z,60.32
2023-05-17T09:21:01.000Z,59.35
2023-05-17T09:21:58.000Z,58.81
2023-05-17T09:22:55.000Z,58.86
2023-05-17T09:23:58.000Z,58.64
2023-05-17T09:24:58.000Z,58.58
2023-05-17T09:26:02.000Z,58.95
2023-05-17T09:27:00.000Z,57.35
2023-05-17T09:28:00.000Z,58.19
2023-05-17T09:28:55.000Z,58.09
2023-05-17T09:29:56.000Z,57.29
2023-05-17T09:30:55.000Z,57.44
2023-05-17T09:31:56.000Z,58.12
2023-05-17T09:33:07.000Z,57.28
2023-05-17T09:33:57.000Z,56.99
2023-05-17T09:34:57.000Z,56.87
2023-05-17T09:35:55.000Z,56.75
2023-05-17T09:36:56.000Z,57.00
2023-05-17T09:38:05.000Z,57.08
2023-05-17T09:39:01.000Z,56.53
2023-05-17T09:39:56.000Z,56.28
2023-05-17T09:40:55.000Z,55.46
2023-05-17T09:41:55.000Z,54.74
2023-05-17T09:42:57.000Z,54.29
2023-05-17T09:43:59.000Z,54.95
2023-05-17T09:44:56.000Z,55.07
2023-05-17T09:45:56.000Z,54.00
2023-05-17T09:46:56.000Z,53.69
2023-05-17T09:47:55.000Z,54.05
2023-05-17T09:48:55.000Z,54.22
2023-05-17T09:49:58.000Z,53.89
2023-05-17T09:50:56.000Z,52.93
2023-05-17T09:51:56.000Z,53.36
2023-05-17T09:52:56.000Z,53.19
2023-05-17T09:53:57.000Z,52.47
2023-05-17T09:54:58.000Z,52.42
2023-05-17T09:55:58.000Z,52.90
2023-05-17T09:56:59.000Z,52.11
2023-05-17T09:58:01.000Z,51.71
2023-05-17T09:58:59.000Z,51.82
2023-05-17T09:59:56.000Z,51.74
2023-05-17T10:01:01.000Z,52.63
2023-05-17T10:01:58.000Z,52.62
2023-05-17T10:02:57.000Z,52.65
2023-05-17T10:04:00.000Z,51.33
2023-05-17T10:04:57.000Z,50.94
2023-05-17T10:05:57.000Z,51.15
2023-05-17T10:06:57.000Z,52.03
2023-05-17T10:07:56.000Z,50.93
2023-05-17T10:08:58.000Z,50.89
2023-05-17T10:09:56.000Z,50.63
2023-05-17T10:11:01.000Z,50.99
2023-05-17T10:11:56.000Z,51.20
2023-05-17T10:12:56.000Z,50.09
2023-05-17T10:14:06.000Z,48.97
2023-05-17T10:14:58.000Z,49.28
2023-05-17T10:15:56.000Z,49.28
2023-05-17T10:16:57.000Z,49.09
2023-05-17T10:17:56.000Z,48.82
2023-05-17T10:18:56.000Z,49.08
2023-05-17T10:19:56.000Z,49.05
2023-05-17T10:20:56.000Z,49.28
2023-05-17T10:21:57.000Z,49.27
2023-05-17T10:22:56.000Z,48.89
2023-05-17T10:24:05.000Z,48.87
2023-05-17T10:24:57.000Z,49.44
2023-05-17T10:25:57.000Z,49.58
2023-05-17T10:26:57.000Z,50.51
2023-05-17T10:27:56.000Z,50.65
2023-05-17T10:29:00.000Z,51.63
2023-05-17T10:29:56.000Z,51.00
2023-05-17T10:30:56.000Z,49.81
2023-05-17T10:31:57.000Z,49.38
2023-05-17T10:32:58.000Z,49.27
2023-05-17T10:33:59.000Z,49.27
2023-05-17T10:34:56.000Z,49.29
2023-05-17T10:35:57.000Z,49.49
2023-05-17T10:36:56.000Z,50.91
2023-05-17T10:37:56.000Z,50.95
2023-05-17T10:38:57.000Z,51.18
2023-05-17T10:39:56.000Z,51.08
2023-05-17T10:40:57.000Z,50.71
2023-05-17T10:41:59.000Z,50.72
2023-05-17T10:42:57.000Z,50.73
2023-05-17T10:43:57.000Z,51.17
2023-05-17T10:44:56.000Z,51.60
2023-05-17T10:45:56.000Z,50.58
2023-05-17T10:46:57.000Z,50.56
2023-05-17T10:47:56.000Z,50.07
2023-05-17T10:48:57.000Z,50.41
2023-05-17T10:49:56.000Z,50.30
2023-05-17T10:50:56.000Z,50.00
2023-05-17T10:51:57.000Z,49.29
2023-05-17T10:52:57.000Z,49.17
2023-05-17T10:54:08.000Z,49.72
2023-05-17T10:54:57.000Z,49.33
2023-05-17T10:55:57.000Z,49.60
2023-05-17T10:57:02.000Z,49.74
2023-05-17T10:58:12.000Z,49.82
2023-05-17T10:59:06.000Z,49.74
2023-05-17T11:00:00.000Z,49.05
2023-05-17T11:00:55.000Z,49.01
2023-05-17T11:02:06.000Z,49.49
2023-05-17T11:03:13.000Z,49.54
2023-05-17T11:03:56.000Z,49.54
2023-05-17T11:04:56.000Z,49.62
2023-05-17T11:06:06.000Z,49.56
2023-05-17T11:07:06.000Z,49.60
2023-05-17T11:08:06.000Z,49.24
2023-05-17T11:09:05.000Z,49.71
2023-05-17T11:10:09.000Z,49.70
2023-05-17T11:11:06.000Z,49.50
2023-05-17T11:12:02.000Z,49.51
2023-05-17T11:12:56.000Z,49.23
2023-05-17T11:14:01.000Z,49.42
2023-05-17T11:14:56.000Z,49.65
2023-05-17T11:16:01.000Z,49.69
2023-05-17T11:16:55.000Z,49.98
2023-05-17T11:17:55.000Z,49.85
2023-05-17T11:19:05.000Z,50.45
2023-05-17T11:20:00.000Z,50.45
2023-05-17T11:21:06.000Z,50.91
2023-05-17T11:21:57.000Z,50.08
2023-05-17T11:23:05.000Z,49.57
2023-05-17T11:24:00.000Z,49.65
2023-05-17T11:24:56.000Z,50.04
2023-05-17T11:26:15.000Z,50.33
2023-05-17T11:26:58.000Z,50.28
2023-05-17T11:27:57.000Z,50.12
2023-05-17T11:29:09.000Z,50.77
2023-05-17T11:30:06.000Z,50.31
2023-05-17T11:30:59.000Z,51.06
2023-05-17T11:31:56.000Z,50.05
2023-05-17T11:33:02.000Z,50.42
2023-05-17T11:33:57.000Z,49.83
2023-05-17T11:34:59.000Z,50.49
2023-05-17T11:35:56.000Z,49.99
2023-05-17T11:36:56.000Z,50.24
2023-05-17T11:38:06.000Z,50.65
2023-05-17T11:39:06.000Z,51.49
2023-05-17T11:40:05.000Z,50.58
2023-05-17T11:40:56.000Z,50.48
2023-05-17T11:41:56.000Z,50.82
2023-05-17T11:43:06.000Z,50.31
2023-05-17T11:43:57.000Z,50.71
2023-05-17T11:44:57.000Z,50.29
2023-05-17T11:45:58.000Z,50.30
2023-05-17T11:47:02.000Z,51.09
2023-05-17T11:47:56.000Z,50.81
2023-05-17T11:48:57.000Z,51.33
2023-05-17T11:50:01.000Z,51.32
2023-05-17T11:50:57.000Z,51.21
2023-05-17T11:51:56.000Z,51.22
2023-05-17T11:52:57.000Z,51.37
2023-05-17T11:53:56.000Z,50.10
2023-05-17T11:54:57.000Z,50.58
2023-05-17T11:56:00.000Z,50.15
2023-05-17T11:56:57.000Z,49.90
2023-05-17T11:57:55.000Z,50.00
2023-05-17T11:58:55.000Z,50.02
2023-05-17T12:00:00.000Z,48.64
2023-05-17T12:00:56.000Z,48.98
2023-05-17T12:01:55.000Z,48.60
2023-05-17T12:02:56.000Z,47.71
2023-05-17T12:03:58.000Z,48.63
2023-05-17T12:04:55.000Z,48.24
2023-05-17T12:06:05.000Z,47.71
2023-05-17T12:06:56.000Z,47.31
2023-05-17T12:07:56.000Z,47.27
2023-05-17T12:08:55.000Z,46.81
2023-05-17T12:09:55.000Z,47.23
2023-05-17T12:10:56.000Z,46.84
2023-05-17T12:11:56.000Z,47.26
2023-05-17T12:12:56.000Z,46.67
2023-05-17T12:13:55.000Z,46.15
2023-05-17T12:14:57.000Z,45.75
2023-05-17T12:15:58.000Z,44.96
2023-05-17T12:16:58.000Z,45.58
2023-05-17T12:17:55.000Z,45.65
2023-05-17T12:18:58.000Z,44.98
2023-05-17T12:20:08.000Z,45.24
2023-05-17T12:20:56.000Z,45.81
2023-05-17T12:22:04.000Z,45.40
2023-05-17T12:22:55.000Z,45.22
2023-05-17T12:23:55.000Z,45.45
2023-05-17T12:24:55.000Z,44.64
2023-05-17T12:26:19.000Z,44.24
2023-05-17T12:26:55.000Z,44.64
2023-05-17T12:28:14.000Z,43.91
2023-05-17T12:28:57.000Z,43.54
2023-05-17T12:29:55.000Z,43.79
2023-05-17T12:30:57.000Z,42.46
2023-05-17T12:31:56.000Z,44.52
2023-05-17T12:32:55.000Z,44.54
2023-05-17T12:33:58.000Z,43.60
2023-05-17T12:34:55.000Z,43.15
2023-05-17T12:35:56.000Z,42.78
2023-05-17T12:36:56.000Z,43.68
2023-05-17T12:37:56.000Z,44.16
2023-05-17T12:38:56.000Z,44.93
2023-05-17T12:39:58.000Z,44.65
2023-05-17T12:40:57.000Z,45.72
2023-05-17T12:41:56.000Z,45.67
2023-05-17T12:43:01.000Z,45.57
2023-05-17T12:43:55.000Z,46.05
2023-05-17T12:44:58.000Z,46.82
2023-05-17T12:46:08.000Z,45.64
2023-05-17T12:47:01.000Z,46.22
2023-05-17T12:47:58.000Z,46.01
2023-05-17T12:49:03.000Z,45.32
2023-05-17T12:49:58.000Z,45.81
2023-05-17T12:50:55.000Z,46.23
2023-05-17T12:52:01.000Z,45.01
2023-05-17T12:52:55.000Z,45.50